createdAt,value
2022-08-26T00:01:03.045Z,11.27
2022-08-26T00:03:37.132Z,10.95
2022-08-26T00:06:13.110Z,9.70
2022-08-26T00:08:48.071Z,8.13
2022-08-26T00:11:26.860Z,7.60
2022-08-26T00:14:02.046Z,8.77
2022-08-26T00:16:40.926Z,8.23
2022-08-26T00:19:22.821Z,7.57
2022-08-26T00:21:57.956Z,7.43
2022-08-26T00:24:31.900Z,6.35
2022-08-26T00:27:06.366Z,8.30
2022-08-26T00:29:41.310Z,7.53
2022-08-26T00:32:18.397Z,8.80
2022-08-26T00:34:52.869Z,11.32
2022-08-26T00:37:27.663Z,11.60
2022-08-26T00:40:05.174Z,8.60
2022-08-26T00:42:40.023Z,9.60
2022-08-26T00:45:20.282Z,9.38
2022-08-26T00:50:35.426Z,8.35
2022-08-26T00:53:24.196Z,6.67
2022-08-26T00:56:03.253Z,6.93
2022-08-26T00:58:38.024Z,7.07
2022-08-26T01:01:15.370Z,8.18
2022-08-26T01:03:52.423Z,8.40
2022-08-26T01:06:27.610Z,8.80
2022-08-26T01:09:02.406Z,7.35
2022-08-26T01:11:36.840Z,8.00
2022-08-26T01:14:11.940Z,8.30
2022-08-26T01:16:45.832Z,8.50
2022-08-26T01:19:25.199Z,6.90
2022-08-26T01:22:01.082Z,6.80
2022-08-26T01:24:37.532Z,9.95
2022-08-26T01:27:13.184Z,8.15
2022-08-26T01:32:25.029Z,8.13
2022-08-26T01:34:58.739Z,9.23
2022-08-26T01:37:36.220Z,8.68
2022-08-26T01:40:17.098Z,8.70
2022-08-26T01:42:52.029Z,8.20
2022-08-26T01:45:27.436Z,7.00
2022-08-26T01:48:02.159Z,7.93
2022-08-26T01:50:37.487Z,9.63
2022-08-26T01:53:12.496Z,8.30
2022-08-26T01:55:50.908Z,7.93
2022-08-26T01:58:26.382Z,7.40
2022-08-26T02:01:00.758Z,7.40
2022-08-26T02:03:38.730Z,7.78
2022-08-26T02:06:16.801Z,7.43
2022-08-26T02:08:52.417Z,7.35
2022-08-26T02:11:29.514Z,6.97
2022-08-26T02:14:07.881Z,7.63
2022-08-26T02:16:44.228Z,7.17
2022-08-26T02:19:19.930Z,9.18
2022-08-26T02:21:54.562Z,8.27
2022-08-26T02:24:31.270Z,5.88
2022-08-26T02:27:08.821Z,6.38
2022-08-26T02:29:44.609Z,6.65
2022-08-26T02:34:53.470Z,6.88
2022-08-26T02:37:31.157Z,9.15
2022-08-26T02:40:05.706Z,8.70
2022-08-26T02:42:42.849Z,9.43
2022-08-26T02:45:23.235Z,8.30
2022-08-26T02:47:59.623Z,8.30
2022-08-26T02:50:35.190Z,7.77
2022-08-26T02:53:11.402Z,6.93
2022-08-26T02:55:49.592Z,8.80
2022-08-26T02:58:27.121Z,7.07
2022-08-26T03:01:01.853Z,9.60
2022-08-26T03:03:38.925Z,7.25
2022-08-26T03:06:13.308Z,8.65
2022-08-26T03:08:50.720Z,9.20
2022-08-26T03:11:29.648Z,7.55
2022-08-26T03:14:10.157Z,7.93
2022-08-26T03:16:52.041Z,7.68
2022-08-26T03:19:24.217Z,8.98
2022-08-26T03:21:59.446Z,7.28
2022-08-26T03:24:33.934Z,7.40
2022-08-26T03:27:09.153Z,8.73
2022-08-26T03:29:57.785Z,10.30
2022-08-26T03:32:32.074Z,8.05
2022-08-26T03:35:08.277Z,7.90
2022-08-26T03:40:20.336Z,8.45
2022-08-26T03:42:54.879Z,7.60
2022-08-26T03:45:32.395Z,7.07
2022-08-26T03:48:07.594Z,7.28
2022-08-26T03:50:42.120Z,7.10
2022-08-26T03:53:17.048Z,5.90
2022-08-26T03:55:57.809Z,7.47
2022-08-26T03:58:31.503Z,7.93
2022-08-26T04:01:08.676Z,8.00
2022-08-26T04:03:55.268Z,8.27
2022-08-26T04:06:31.934Z,8.65
2022-08-26T04:09:08.157Z,10.48
2022-08-26T04:11:47.614Z,10.30
2022-08-26T04:14:24.609Z,8.40
2022-08-26T04:17:02.103Z,8.70
2022-08-26T04:19:36.143Z,9.45
2022-08-26T04:22:11.865Z,8.55
2022-08-26T04:27:20.618Z,7.80
2022-08-26T04:29:56.146Z,8.10
2022-08-26T04:32:32.432Z,8.10
2022-08-26T04:35:07.755Z,9.48
2022-08-26T04:37:44.364Z,9.50
2022-08-26T04:40:18.859Z,10.88
2022-08-26T04:42:53.597Z,9.30
2022-08-26T04:45:29.142Z,12.30
2022-08-26T04:48:06.890Z,10.47
2022-08-26T04:50:49.409Z,11.90
2022-08-26T04:53:24.855Z,11.63
2022-08-26T04:55:59.349Z,13.52
2022-08-26T04:58:34.277Z,13.60
2022-08-26T05:01:08.883Z,11.80
2022-08-26T05:03:46.718Z,11.07
2022-08-26T05:06:21.078Z,13.10
2022-08-26T05:08:57.020Z,10.95
2022-08-26T05:11:33.618Z,11.48
2022-08-26T05:14:09.301Z,10.90
2022-08-26T05:16:45.795Z,13.25
2022-08-26T05:19:25.374Z,12.15
2022-08-26T05:22:02.655Z,11.45
2022-08-26T05:24:37.071Z,11.33
2022-08-26T05:27:12.621Z,12.60
2022-08-26T05:29:48.999Z,12.75
2022-08-26T05:32:32.421Z,12.93
2022-08-26T05:35:11.696Z,12.18
2022-08-26T05:37:46.634Z,13.00
2022-08-26T05:40:22.690Z,11.88
2022-08-26T05:42:54.321Z,12.55
2022-08-26T05:45:29.026Z,11.27
2022-08-26T05:48:06.687Z,12.15
2022-08-26T05:50:41.028Z,12.07
2022-08-26T05:53:22.109Z,12.75
2022-08-26T05:55:58.486Z,10.77
2022-08-26T05:58:34.311Z,11.47
2022-08-26T06:01:10.770Z,12.75
2022-08-26T06:03:47.735Z,11.43
2022-08-26T06:06:27.569Z,12.32
2022-08-26T06:09:11.105Z,11.75
2022-08-26T06:11:47.019Z,11.32
2022-08-26T06:14:23.755Z,11.18
2022-08-26T06:16:58.465Z,11.85
2022-08-26T06:19:34.627Z,12.90
2022-08-26T06:22:29.566Z,11.85
2022-08-26T06:25:30.142Z,11.15
2022-08-26T06:28:06.205Z,12.20
2022-08-26T06:30:42.861Z,11.85
2022-08-26T06:33:18.408Z,10.70
2022-08-26T06:38:29.346Z,11.80
2022-08-26T06:41:07.061Z,11.10
2022-08-26T06:43:41.858Z,11.43
2022-08-26T06:46:19.162Z,11.90
2022-08-26T06:48:54.263Z,10.80
2022-08-26T06:51:30.398Z,11.77
2022-08-26T06:54:05.345Z,10.40
2022-08-26T06:56:44.071Z,10.15
2022-08-26T06:59:18.987Z,10.83
2022-08-26T07:02:00.593Z,11.57
2022-08-26T07:04:38.493Z,10.13
2022-08-26T07:07:16.756Z,10.85
2022-08-26T07:09:52.466Z,11.40
2022-08-26T07:12:31.072Z,10.60
2022-08-26T07:15:05.778Z,10.13
2022-08-26T07:17:42.907Z,10.73
2022-08-26T07:20:18.370Z,9.57
2022-08-26T07:22:54.432Z,10.20
2022-08-26T07:25:29.484Z,10.02
2022-08-26T07:28:08.319Z,10.93
2022-08-26T07:30:45.731Z,10.73
2022-08-26T07:33:21.430Z,10.63
2022-08-26T07:35:56.736Z,9.70
2022-08-26T07:41:08.882Z,12.18
2022-08-26T07:43:48.844Z,11.15
2022-08-26T07:46:26.915Z,9.65
2022-08-26T07:49:05.206Z,10.32
2022-08-26T07:54:15.142Z,8.48
2022-08-26T07:56:49.478Z,10.05
2022-08-26T07:59:29.058Z,10.90
2022-08-26T08:02:07.166Z,9.27
2022-08-26T08:04:48.507Z,10.30
2022-08-26T08:07:35.038Z,9.10
2022-08-26T08:10:25.056Z,9.93
2022-08-26T08:13:00.553Z,9.43
2022-08-26T08:15:39.950Z,8.90
2022-08-26T08:18:24.075Z,9.65
2022-08-26T08:21:20.938Z,8.93
2022-08-26T08:24:01.778Z,9.15
2022-08-26T08:26:39.899Z,9.67
2022-08-26T08:29:15.966Z,9.27
2022-08-26T08:31:56.997Z,8.30
2022-08-26T08:37:30.524Z,8.10
2022-08-26T08:40:08.874Z,9.05
2022-08-26T08:42:49.692Z,8.35
2022-08-26T08:45:35.877Z,8.38
2022-08-26T08:48:17.513Z,8.55
2022-08-26T08:50:59.893Z,8.10
2022-08-26T08:53:43.170Z,7.85
2022-08-26T08:56:24.401Z,7.72
2022-08-26T08:58:59.394Z,7.65
2022-08-26T09:01:45.928Z,7.70
2022-08-26T09:04:53.669Z,7.10
2022-08-26T09:07:32.213Z,9.27
2022-08-26T09:10:34.307Z,8.18
2022-08-26T09:13:08.469Z,7.28
2022-08-26T09:15:54.156Z,8.00
2022-08-26T09:18:40.787Z,7.40
2022-08-26T09:21:18.826Z,6.27
2022-08-26T09:23:57.004Z,6.88
2022-08-26T09:26:47.542Z,6.28
2022-08-26T09:31:55.789Z,6.20
2022-08-26T09:34:31.889Z,6.03
2022-08-26T09:37:10.624Z,5.75
2022-08-26T09:39:49.048Z,5.90
2022-08-26T09:42:35.023Z,6.32
2022-08-26T09:45:13.670Z,5.80
2022-08-26T09:48:01.375Z,5.72
2022-08-26T09:50:38.125Z,5.82
2022-08-26T09:53:20.825Z,5.05
2022-08-26T09:55:58.140Z,5.00
2022-08-26T09:58:41.850Z,5.35
2022-08-26T10:01:19.573Z,5.00
2022-08-26T10:03:55.538Z,5.32
2022-08-26T10:06:34.782Z,5.20
2022-08-26T10:09:11.095Z,6.43
2022-08-26T10:11:49.582Z,5.70
2022-08-26T10:14:29.878Z,5.03
2022-08-26T10:17:06.941Z,5.45
2022-08-26T10:19:56.470Z,5.88
2022-08-26T10:22:37.041Z,4.75
2022-08-26T10:25:15.337Z,5.25
2022-08-26T10:27:53.629Z,5.65
2022-08-26T10:30:35.069Z,5.00
2022-08-26T10:33:13.191Z,4.60
2022-08-26T10:35:52.287Z,4.63
2022-08-26T10:38:30.898Z,5.20
2022-08-26T10:41:11.156Z,5.20
2022-08-26T10:43:50.828Z,5.18
2022-08-26T10:46:32.345Z,4.50
2022-08-26T10:49:12.444Z,4.90
2022-08-26T10:51:53.372Z,5.33
2022-08-26T10:54:35.353Z,5.22
2022-08-26T10:57:14.947Z,4.85
2022-08-26T10:59:55.423Z,4.30
2022-08-26T11:02:36.885Z,4.90
2022-08-26T11:05:18.762Z,4.15
2022-08-26T11:07:57.114Z,3.70
2022-08-26T11:11:08.869Z,3.88
2022-08-26T11:14:02.349Z,4.18
2022-08-26T11:16:43.356Z,4.15
2022-08-26T11:20:00.171Z,3.28
2022-08-26T11:22:47.585Z,3.70
2022-08-26T11:25:30.834Z,4.20
2022-08-26T11:28:10.566Z,4.22
2022-08-26T11:30:57.512Z,3.97
2022-08-26T11:34:11.482Z,3.72
2022-08-26T11:37:05.053Z,3.92
2022-08-26T11:39:54.709Z,3.13
2022-08-26T11:42:36.058Z,3.73
2022-08-26T11:45:20.772Z,3.53
2022-08-26T11:47:55.869Z,3.10
2022-08-26T11:50:33.585Z,3.90
2022-08-26T11:53:09.177Z,3.58
2022-08-26T11:55:45.975Z,2.80
2022-08-26T11:58:26.156Z,3.20
2022-08-26T12:01:05.955Z,3.72
2022-08-26T12:03:43.536Z,3.95
2022-08-26T12:06:21.758Z,4.17
2022-08-26T12:08:57.649Z,3.05
2022-08-26T12:11:34.478Z,4.20
2022-08-26T12:14:19.362Z,3.90
2022-08-26T12:16:55.947Z,3.20
2022-08-26T12:19:37.710Z,3.15
2022-08-26T12:22:18.194Z,3.70
2022-08-26T12:24:59.299Z,3.40
2022-08-26T12:27:35.123Z,3.28
2022-08-26T12:30:17.963Z,3.63
2022-08-26T12:32:58.852Z,3.03
2022-08-26T12:35:36.791Z,3.53
2022-08-26T12:38:15.551Z,3.60
2022-08-26T12:40:50.655Z,3.22
2022-08-26T12:43:43.115Z,3.60
2022-08-26T12:46:32.261Z,3.40
2022-08-26T12:49:07.701Z,3.03
2022-08-26T12:51:44.775Z,2.92
2022-08-26T12:54:42.519Z,3.15
2022-08-26T12:57:18.786Z,4.18
2022-08-26T12:59:56.291Z,3.00
2022-08-26T13:02:42.203Z,4.53
2022-08-26T13:05:23.840Z,2.88
2022-08-26T13:08:14.769Z,3.88
2022-08-26T13:10:50.937Z,3.50
2022-08-26T13:13:26.663Z,3.20
2022-08-26T13:16:02.782Z,3.93
2022-08-26T13:18:44.065Z,3.40
2022-08-26T13:21:21.343Z,3.08
2022-08-26T13:23:56.311Z,3.40
2022-08-26T13:26:31.360Z,3.40
2022-08-26T13:29:10.149Z,3.47
2022-08-26T13:31:46.193Z,3.08
2022-08-26T13:34:24.665Z,3.28
2022-08-26T13:36:59.494Z,3.20
2022-08-26T13:39:34.259Z,3.40
2022-08-26T13:42:08.884Z,2.90
2022-08-26T13:44:45.404Z,3.50
2022-08-26T13:47:19.828Z,3.22
2022-08-26T13:49:59.731Z,3.40
2022-08-26T13:52:35.830Z,3.35
2022-08-26T13:55:13.915Z,3.55
2022-08-26T13:57:48.576Z,2.97
2022-08-26T14:00:24.396Z,3.10
2022-08-26T14:03:01.608Z,3.03
2022-08-26T14:05:41.275Z,3.50
2022-08-26T14:08:18.797Z,3.37
2022-08-26T14:10:53.003Z,3.72
2022-08-26T14:13:30.113Z,3.00
2022-08-26T14:16:04.647Z,3.15
2022-08-26T14:18:42.542Z,4.33
2022-08-26T14:21:22.108Z,3.35
2022-08-26T14:24:00.946Z,3.22
2022-08-26T14:26:35.922Z,3.08
2022-08-26T14:29:16.215Z,2.70
2022-08-26T14:31:54.986Z,2.70
2022-08-26T14:34:30.431Z,2.38
2022-08-26T14:37:13.516Z,2.15
2022-08-26T14:39:50.308Z,2.85
2022-08-26T14:42:31.637Z,2.80
2022-08-26T14:45:10.047Z,2.90
2022-08-26T14:47:45.315Z,3.27
2022-08-26T14:50:24.354Z,2.70
2022-08-26T14:53:10.812Z,2.83
2022-08-26T14:55:50.840Z,2.20
2022-08-26T14:58:28.595Z,2.65
2022-08-26T15:01:12.366Z,2.75
2022-08-26T15:03:46.640Z,3.03
2022-08-26T15:06:30.228Z,2.73
2022-08-26T15:09:06.805Z,2.92
2022-08-26T15:11:47.591Z,2.63
2022-08-26T15:14:26.079Z,2.50
2022-08-26T15:17:05.092Z,2.72
2022-08-26T15:19:39.349Z,2.85
2022-08-26T15:22:14.752Z,2.60
2022-08-26T15:24:53.631Z,2.33
2022-08-26T15:27:31.867Z,2.67
2022-08-26T15:30:06.851Z,2.95
2022-08-26T15:32:41.310Z,3.20
2022-08-26T15:35:17.263Z,2.58
2022-08-26T15:40:28.730Z,3.05
2022-08-26T15:43:25.623Z,2.85
2022-08-26T15:46:03.877Z,2.38
2022-08-26T15:51:22.916Z,2.97
2022-08-26T15:54:00.124Z,2.85
2022-08-26T15:56:35.729Z,3.08
2022-08-26T15:59:18.847Z,2.63
2022-08-26T16:01:54.611Z,2.90
2022-08-26T16:04:29.301Z,2.80
2022-08-26T16:07:04.904Z,2.60
2022-08-26T16:09:39.918Z,2.50
2022-08-26T16:12:17.231Z,3.67
2022-08-26T16:14:55.388Z,2.50
2022-08-26T16:17:30.719Z,2.55
2022-08-26T16:20:07.766Z,3.70
2022-08-26T16:22:46.008Z,2.58
2022-08-26T16:25:20.832Z,2.90
2022-08-26T16:27:55.910Z,2.80
2022-08-26T16:30:33.734Z,3.10
2022-08-26T16:33:09.603Z,5.18
2022-08-26T16:35:45.259Z,4.35
2022-08-26T16:38:22.211Z,3.80
2022-08-26T16:40:58.528Z,2.85
2022-08-26T16:46:12.372Z,2.90
2022-08-26T16:48:47.242Z,2.53
2022-08-26T16:51:24.564Z,2.60
2022-08-26T16:54:00.132Z,2.88
2022-08-26T16:56:34.701Z,2.88
2022-08-26T16:59:10.825Z,2.78
2022-08-26T17:01:47.910Z,3.00
2022-08-26T17:04:22.275Z,2.40
2022-08-26T17:06:56.901Z,2.80
2022-08-26T17:09:31.876Z,2.92
2022-08-26T17:12:07.184Z,2.53
2022-08-26T17:17:16.802Z,3.10
2022-08-26T17:19:51.585Z,3.50
2022-08-26T17:22:27.527Z,2.60
2022-08-26T17:25:04.361Z,2.60
2022-08-26T17:27:37.985Z,3.35
2022-08-26T17:30:14.213Z,3.90
2022-08-26T17:32:50.947Z,3.40
2022-08-26T17:35:25.374Z,2.95
2022-08-26T17:38:00.027Z,2.90
2022-08-26T17:40:35.132Z,3.05
2022-08-26T17:43:12.222Z,4.60
2022-08-26T17:45:47.135Z,4.13
2022-08-26T17:48:23.585Z,3.58
2022-08-26T17:50:58.075Z,2.60
2022-08-26T17:53:32.147Z,2.43
2022-08-26T17:56:08.158Z,2.88
2022-08-26T17:58:51.327Z,3.77
2022-08-26T18:01:26.472Z,4.03
2022-08-26T18:04:03.722Z,3.35
2022-08-26T18:06:39.471Z,4.00
2022-08-26T18:09:13.952Z,3.20
2022-08-26T18:11:47.903Z,3.40
2022-08-26T18:14:22.006Z,3.80
2022-08-26T18:16:56.101Z,2.83
2022-08-26T18:19:32.679Z,2.88
2022-08-26T18:22:07.142Z,2.57
2022-08-26T18:24:41.618Z,3.08
2022-08-26T18:27:32.237Z,3.05
2022-08-26T18:30:06.347Z,3.03
2022-08-26T18:32:40.376Z,3.85
2022-08-26T18:35:18.152Z,3.07
2022-08-26T18:37:53.593Z,2.88
2022-08-26T18:40:28.775Z,3.47
2022-08-26T18:43:03.469Z,3.90
2022-08-26T18:45:38.554Z,3.40
2022-08-26T18:48:13.171Z,4.05
2022-08-26T18:50:55.154Z,3.60
2022-08-26T18:53:31.936Z,3.80
2022-08-26T18:56:13.221Z,3.30
2022-08-26T18:58:49.135Z,4.30
2022-08-26T19:01:27.230Z,3.50
2022-08-26T19:04:03.182Z,3.78
2022-08-26T19:09:17.872Z,3.30
2022-08-26T19:11:52.183Z,4.38
2022-08-26T19:14:27.759Z,3.58
2022-08-26T19:19:37.526Z,3.88
2022-08-26T19:22:14.923Z,3.80
2022-08-26T19:24:49.794Z,3.50
2022-08-26T19:27:24.461Z,3.58
2022-08-26T19:29:59.416Z,3.90
2022-08-26T19:32:33.218Z,4.10
2022-08-26T19:35:13.412Z,3.80
2022-08-26T19:37:49.931Z,4.33
2022-08-26T19:40:25.731Z,4.07
2022-08-26T19:43:00.185Z,4.00
2022-08-26T19:45:35.209Z,3.45
2022-08-26T19:48:10.013Z,4.85
2022-08-26T19:50:44.213Z,4.87
2022-08-26T19:53:20.688Z,4.70
2022-08-26T19:55:55.059Z,4.88
2022-08-26T19:58:29.086Z,4.20
2022-08-26T20:01:03.070Z,4.40
2022-08-26T20:03:37.139Z,5.10
2022-08-26T20:06:12.075Z,4.22
2022-08-26T20:08:50.701Z,4.57
2022-08-26T20:11:22.466Z,4.00
2022-08-26T20:13:57.887Z,4.60
2022-08-26T20:16:33.470Z,4.50
2022-08-26T20:21:54.660Z,5.70
2022-08-26T20:24:32.865Z,5.00
2022-08-26T20:27:08.864Z,4.40
2022-08-26T20:29:43.316Z,4.35
2022-08-26T20:32:17.168Z,4.55
2022-08-26T20:34:51.962Z,3.80
2022-08-26T20:37:26.228Z,4.80
2022-08-26T20:40:02.924Z,6.25
2022-08-26T20:42:37.862Z,5.80
2022-08-26T20:45:13.062Z,4.97
2022-08-26T20:47:47.451Z,5.10
2022-08-26T20:50:21.158Z,5.00
2022-08-26T20:52:55.316Z,6.07
2022-08-26T20:55:31.892Z,4.82
2022-08-26T20:58:06.197Z,4.57
2022-08-26T21:00:43.576Z,4.03
2022-08-26T21:03:18.223Z,5.00
2022-08-26T21:05:52.602Z,4.72
2022-08-26T21:08:27.343Z,4.80
2022-08-26T21:11:04.442Z,4.60
2022-08-26T21:14:01.603Z,5.37
2022-08-26T21:16:36.871Z,5.05
2022-08-26T21:19:12.542Z,5.70
2022-08-26T21:24:21.244Z,4.78
2022-08-26T21:26:58.579Z,5.93
2022-08-26T21:29:33.355Z,5.80
2022-08-26T21:32:07.661Z,5.50
2022-08-26T21:34:42.634Z,6.03
2022-08-26T21:37:17.730Z,6.38
2022-08-26T21:39:55.500Z,5.30
2022-08-26T21:42:34.606Z,5.90
2022-08-26T21:45:11.549Z,6.15
2022-08-26T21:47:46.969Z,4.50
2022-08-26T21:50:21.908Z,5.63
2022-08-26T21:52:56.427Z,5.27
2022-08-26T21:55:30.280Z,5.40
2022-08-26T21:58:07.375Z,6.33
2022-08-26T22:00:41.279Z,4.97
2022-08-26T22:03:16.351Z,5.25
2022-08-26T22:05:52.000Z,4.97
2022-08-26T22:11:03.233Z,4.55
2022-08-26T22:13:40.586Z,5.17
2022-08-26T22:16:15.306Z,5.63
2022-08-26T22:18:49.893Z,5.47
2022-08-26T22:21:27.417Z,6.20
2022-08-26T22:24:01.311Z,6.10
2022-08-26T22:26:36.593Z,6.38
2022-08-26T22:29:14.408Z,7.03
2022-08-26T22:31:48.371Z,9.27
2022-08-26T22:34:23.397Z,8.88
2022-08-26T22:36:59.817Z,8.33
2022-08-26T22:39:34.432Z,7.80
2022-08-26T22:42:08.495Z,8.43
2022-08-26T22:44:52.570Z,7.83
2022-08-26T22:47:27.198Z,7.03
2022-08-26T22:50:01.827Z,6.75
2022-08-26T22:52:37.058Z,6.40
2022-08-26T22:55:12.906Z,6.60
2022-08-26T22:57:47.343Z,7.70
2022-08-26T23:00:32.222Z,6.72
2022-08-26T23:03:06.532Z,6.25
2022-08-26T23:05:41.606Z,6.35
2022-08-26T23:08:16.358Z,6.95
2022-08-26T23:10:51.187Z,6.95
2022-08-26T23:13:25.416Z,7.23
2022-08-26T23:16:09.612Z,7.63
2022-08-26T23:18:44.413Z,6.57
2022-08-26T23:21:18.303Z,7.25
2022-08-26T23:23:52.291Z,6.60
2022-08-26T23:26:26.463Z,5.90
2022-08-26T23:29:00.296Z,5.95
2022-08-26T23:31:37.502Z,6.40
2022-08-26T23:34:24.608Z,5.97
2022-08-26T23:37:00.283Z,5.45
2022-08-26T23:39:35.116Z,6.90
2022-08-26T23:42:09.719Z,6.50
2022-08-26T23:44:44.394Z,5.82
2022-08-26T23:47:20.757Z,6.20
2022-08-26T23:49:55.075Z,5.53
2022-08-26T23:52:44.566Z,5.20
2022-08-26T23:55:19.951Z,6.50
2022-08-26T23:57:54.395Z,6.15
